sensor_id;sensor_type;location;lat;lon;timestamp;temperature;humidity
58529;DHT22;44322;52.968;5.816;2022-09-09T00:10:17;15.20;99.90
58529;DHT22;44322;52.968;5.816;2022-09-09T00:12:36;15.20;99.90
58529;DHT22;44322;52.968;5.816;2022-09-09T00:18:13;15.10;99.90
58529;DHT22;44322;52.968;5.816;2022-09-09T00:23:25;15.20;99.90
58529;DHT22;44322;52.968;5.816;2022-09-09T00:28:26;15.10;99.90
58529;DHT22;44322;52.968;5.816;2022-09-09T00:30:53;15.10;99.90
58529;DHT22;44322;52.968;5.816;2022-09-09T00:33:23;15.10;99.90
58529;DHT22;44322;52.968;5.816;2022-09-09T00:35:53;15.10;99.90
58529;DHT22;44322;52.968;5.816;2022-09-09T00:44:03;15.10;99.90
58529;DHT22;44322;52.968;5.816;2022-09-09T00:46:54;15.10;99.90
58529;DHT22;44322;52.968;5.816;2022-09-09T00:50:09;15.10;99.90
58529;DHT22;44322;52.968;5.816;2022-09-09T00:57:31;15.20;99.90
58529;DHT22;44322;52.968;5.816;2022-09-09T01:00:23;15.10;99.90
58529;DHT22;44322;52.968;5.816;2022-09-09T01:05:36;15.20;99.90
58529;DHT22;44322;52.968;5.816;2022-09-09T01:08:18;15.20;99.90
58529;DHT22;44322;52.968;5.816;2022-09-09T01:10:52;15.20;99.90
58529;DHT22;44322;52.968;5.816;2022-09-09T01:13:25;15.20;99.90
58529;DHT22;44322;52.968;5.816;2022-09-09T01:15:53;15.20;99.90
58529;DHT22;44322;52.968;5.816;2022-09-09T01:18:23;15.20;99.90
58529;DHT22;44322;52.968;5.816;2022-09-09T01:20:58;15.20;99.90
58529;DHT22;44322;52.968;5.816;2022-09-09T01:23:38;15.20;99.90
58529;DHT22;44322;52.968;5.816;2022-09-09T01:26:42;15.20;99.90
58529;DHT22;44322;52.968;5.816;2022-09-09T01:29:17;15.20;99.90
58529;DHT22;44322;52.968;5.816;2022-09-09T01:31:58;15.20;99.90
58529;DHT22;44322;52.968;5.816;2022-09-09T01:34:30;15.20;99.90
58529;DHT22;44322;52.968;5.816;2022-09-09T01:37:06;15.20;99.90
58529;DHT22;44322;52.968;5.816;2022-09-09T01:39:37;15.20;99.90
58529;DHT22;44322;52.968;5.816;2022-09-09T01:42:11;15.20;99.90
58529;DHT22;44322;52.968;5.816;2022-09-09T01:44:38;15.30;99.90
58529;DHT22;44322;52.968;5.816;2022-09-09T01:47:06;15.30;99.90
58529;DHT22;44322;52.968;5.816;2022-09-09T01:49:32;15.30;99.90
58529;DHT22;44322;52.968;5.816;2022-09-09T01:52:03;15.30;99.90
58529;DHT22;44322;52.968;5.816;2022-09-09T01:54:34;15.30;99.90
58529;DHT22;44322;52.968;5.816;2022-09-09T02:08:01;15.40;99.90
58529;DHT22;44322;52.968;5.816;2022-09-09T02:10:47;15.40;99.90
58529;DHT22;44322;52.968;5.816;2022-09-09T02:13:28;15.40;99.90
58529;DHT22;44322;52.968;5.816;2022-09-09T02:16:13;15.40;99.90
58529;DHT22;44322;52.968;5.816;2022-09-09T02:22:00;15.50;99.90
58529;DHT22;44322;52.968;5.816;2022-09-09T02:24:29;15.40;99.90
58529;DHT22;44322;52.968;5.816;2022-09-09T02:27:09;15.50;99.90
58529;DHT22;44322;52.968;5.816;2022-09-09T02:29:40;15.50;99.90
58529;DHT22;44322;52.968;5.816;2022-09-09T02:32:17;15.50;99.90
58529;DHT22;44322;52.968;5.816;2022-09-09T02:34:46;15.50;99.90
58529;DHT22;44322;52.968;5.816;2022-09-09T02:37:17;15.50;99.90
58529;DHT22;44322;52.968;5.816;2022-09-09T02:39:47;15.50;99.90
58529;DHT22;44322;52.968;5.816;2022-09-09T02:42:16;15.50;99.90
58529;DHT22;44322;52.968;5.816;2022-09-09T02:44:44;15.50;99.90
58529;DHT22;44322;52.968;5.816;2022-09-09T02:47:32;15.50;99.90
58529;DHT22;44322;52.968;5.816;2022-09-09T02:50:20;15.50;99.90
58529;DHT22;44322;52.968;5.816;2022-09-09T02:55:25;15.50;99.90
58529;DHT22;44322;52.968;5.816;2022-09-09T02:57:55;15.50;99.90
58529;DHT22;44322;52.968;5.816;2022-09-09T03:00:25;15.50;99.90
58529;DHT22;44322;52.968;5.816;2022-09-09T03:02:53;15.40;99.90
58529;DHT22;44322;52.968;5.816;2022-09-09T03:05:20;15.40;99.90
58529;DHT22;44322;52.968;5.816;2022-09-09T03:07:47;15.40;99.90
58529;DHT22;44322;52.968;5.816;2022-09-09T03:10:15;15.40;99.90
58529;DHT22;44322;52.968;5.816;2022-09-09T03:12:41;15.30;99.90
58529;DHT22;44322;52.968;5.816;2022-09-09T03:15:08;15.30;99.90
58529;DHT22;44322;52.968;5.816;2022-09-09T03:17:36;15.30;99.90
58529;DHT22;44322;52.968;5.816;2022-09-09T03:20:06;15.30;99.90
58529;DHT22;44322;52.968;5.816;2022-09-09T03:22:33;15.30;99.90
58529;DHT22;44322;52.968;5.816;2022-09-09T03:25:00;15.30;99.90
58529;DHT22;44322;52.968;5.816;2022-09-09T03:27:29;15.30;99.90
58529;DHT22;44322;52.968;5.816;2022-09-09T03:29:56;15.20;99.90
58529;DHT22;44322;52.968;5.816;2022-09-09T03:32:24;15.20;99.90
58529;DHT22;44322;52.968;5.816;2022-09-09T03:34:52;15.20;99.90
58529;DHT22;44322;52.968;5.816;2022-09-09T03:37:19;15.20;99.90
58529;DHT22;44322;52.968;5.816;2022-09-09T03:39:46;15.20;99.90
58529;DHT22;44322;52.968;5.816;2022-09-09T03:42:13;15.20;99.90
58529;DHT22;44322;52.968;5.816;2022-09-09T03:44:40;15.10;99.90
58529;DHT22;44322;52.968;5.816;2022-09-09T03:47:08;15.10;99.90
58529;DHT22;44322;52.968;5.816;2022-09-09T03:49:34;15.10;99.90
58529;DHT22;44322;52.968;5.816;2022-09-09T03:52:00;15.10;99.90
58529;DHT22;44322;52.968;5.816;2022-09-09T03:54:26;15.10;99.90
58529;DHT22;44322;52.968;5.816;2022-09-09T03:56:53;15.10;99.90
58529;DHT22;44322;52.968;5.816;2022-09-09T03:59:20;15.10;99.90
58529;DHT22;44322;52.968;5.816;2022-09-09T04:01:50;15.00;99.90
58529;DHT22;44322;52.968;5.816;2022-09-09T04:04:17;15.00;99.90
58529;DHT22;44322;52.968;5.816;2022-09-09T04:06:51;15.00;99.90
58529;DHT22;44322;52.968;5.816;2022-09-09T04:09:17;15.00;99.90
58529;DHT22;44322;52.968;5.816;2022-09-09T04:11:43;15.00;99.90
58529;DHT22;44322;52.968;5.816;2022-09-09T04:14:09;15.00;99.90
58529;DHT22;44322;52.968;5.816;2022-09-09T04:16:35;15.00;99.90
58529;DHT22;44322;52.968;5.816;2022-09-09T04:19:03;15.00;99.90
58529;DHT22;44322;52.968;5.816;2022-09-09T04:21:33;15.00;99.90
58529;DHT22;44322;52.968;5.816;2022-09-09T04:24:00;15.00;99.90
58529;DHT22;44322;52.968;5.816;2022-09-09T04:26:26;15.00;99.90
58529;DHT22;44322;52.968;5.816;2022-09-09T04:28:52;15.00;99.90
58529;DHT22;44322;52.968;5.816;2022-09-09T04:31:20;15.00;99.90
58529;DHT22;44322;52.968;5.816;2022-09-09T04:33:50;15.00;99.90
58529;DHT22;44322;52.968;5.816;2022-09-09T04:36:17;15.00;99.90
58529;DHT22;44322;52.968;5.816;2022-09-09T04:38:45;14.90;99.90
58529;DHT22;44322;52.968;5.816;2022-09-09T04:41:12;15.00;99.90
58529;DHT22;44322;52.968;5.816;2022-09-09T04:43:40;14.90;99.90
58529;DHT22;44322;52.968;5.816;2022-09-09T04:46:07;14.90;99.90
58529;DHT22;44322;52.968;5.816;2022-09-09T04:48:34;14.90;99.90
58529;DHT22;44322;52.968;5.816;2022-09-09T04:51:04;14.90;99.90
58529;DHT22;44322;52.968;5.816;2022-09-09T04:53:32;14.90;99.90
58529;DHT22;44322;52.968;5.816;2022-09-09T04:56:10;14.80;99.90
58529;DHT22;44322;52.968;5.816;2022-09-09T04:58:41;14.80;99.90
58529;DHT22;44322;52.968;5.816;2022-09-09T05:01:16;14.80;99.90
58529;DHT22;44322;52.968;5.816;2022-09-09T05:03:44;14.80;99.90
58529;DHT22;44322;52.968;5.816;2022-09-09T05:06:19;14.70;99.90
58529;DHT22;44322;52.968;5.816;2022-09-09T05:08:47;14.70;99.90
58529;DHT22;44322;52.968;5.816;2022-09-09T05:11:21;14.70;99.90
58529;DHT22;44322;52.968;5.816;2022-09-09T05:13:50;14.70;99.90
58529;DHT22;44322;52.968;5.816;2022-09-09T05:16:17;14.70;99.90
58529;DHT22;44322;52.968;5.816;2022-09-09T05:18:44;14.70;99.90
58529;DHT22;44322;52.968;5.816;2022-09-09T05:21:11;14.70;99.90
58529;DHT22;44322;52.968;5.816;2022-09-09T05:23:37;14.60;99.90
58529;DHT22;44322;52.968;5.816;2022-09-09T05:26:04;14.70;99.90
58529;DHT22;44322;52.968;5.816;2022-09-09T05:28:30;14.70;99.90
58529;DHT22;44322;52.968;5.816;2022-09-09T05:31:01;14.70;99.90
58529;DHT22;44322;52.968;5.816;2022-09-09T05:33:31;14.70;99.90
58529;DHT22;44322;52.968;5.816;2022-09-09T05:36:10;14.60;99.90
58529;DHT22;44322;52.968;5.816;2022-09-09T05:38:39;14.70;99.90
58529;DHT22;44322;52.968;5.816;2022-09-09T05:41:07;14.70;99.90
58529;DHT22;44322;52.968;5.816;2022-09-09T05:43:33;14.70;99.90
58529;DHT22;44322;52.968;5.816;2022-09-09T05:46:21;14.70;99.90
58529;DHT22;44322;52.968;5.816;2022-09-09T05:48:51;14.70;99.90
58529;DHT22;44322;52.968;5.816;2022-09-09T05:51:20;14.70;99.90
58529;DHT22;44322;52.968;5.816;2022-09-09T05:53:48;14.70;99.90
58529;DHT22;44322;52.968;5.816;2022-09-09T05:56:17;14.70;99.90
58529;DHT22;44322;52.968;5.816;2022-09-09T05:58:44;14.80;99.90
58529;DHT22;44322;52.968;5.816;2022-09-09T06:01:18;14.80;99.90
58529;DHT22;44322;52.968;5.816;2022-09-09T06:03:47;14.80;99.90
58529;DHT22;44322;52.968;5.816;2022-09-09T06:06:25;14.80;99.90
58529;DHT22;44322;52.968;5.816;2022-09-09T06:08:57;14.80;99.90
58529;DHT22;44322;52.968;5.816;2022-09-09T06:11:27;14.90;99.90
58529;DHT22;44322;52.968;5.816;2022-09-09T06:13:58;14.80;99.90
58529;DHT22;44322;52.968;5.816;2022-09-09T06:16:26;14.90;99.90
58529;DHT22;44322;52.968;5.816;2022-09-09T06:18:56;14.90;99.90
58529;DHT22;44322;52.968;5.816;2022-09-09T06:21:27;14.90;99.90
58529;DHT22;44322;52.968;5.816;2022-09-09T06:23:54;14.90;99.90
58529;DHT22;44322;52.968;5.816;2022-09-09T06:26:25;14.90;99.90
58529;DHT22;44322;52.968;5.816;2022-09-09T06:28:54;15.00;99.90
58529;DHT22;44322;52.968;5.816;2022-09-09T06:31:22;15.00;99.90
58529;DHT22;44322;52.968;5.816;2022-09-09T06:33:51;15.00;99.90
58529;DHT22;44322;52.968;5.816;2022-09-09T06:36:29;15.00;99.90
58529;DHT22;44322;52.968;5.816;2022-09-09T06:38:55;15.00;99.90
58529;DHT22;44322;52.968;5.816;2022-09-09T06:41:23;15.00;99.90
58529;DHT22;44322;52.968;5.816;2022-09-09T06:43:49;15.00;99.90
58529;DHT22;44322;52.968;5.816;2022-09-09T06:46:24;15.00;99.90
58529;DHT22;44322;52.968;5.816;2022-09-09T06:48:55;15.00;99.90
58529;DHT22;44322;52.968;5.816;2022-09-09T06:51:25;15.00;99.90
58529;DHT22;44322;52.968;5.816;2022-09-09T06:53:54;15.00;99.90
58529;DHT22;44322;52.968;5.816;2022-09-09T06:56:26;15.00;99.90
58529;DHT22;44322;52.968;5.816;2022-09-09T06:58:56;15.00;99.90
58529;DHT22;44322;52.968;5.816;2022-09-09T07:01:28;15.10;99.90
58529;DHT22;44322;52.968;5.816;2022-09-09T07:04:00;15.10;99.90
58529;DHT22;44322;52.968;5.816;2022-09-09T07:06:29;15.10;99.90
58529;DHT22;44322;52.968;5.816;2022-09-09T07:09:09;15.10;99.90
58529;DHT22;44322;52.968;5.816;2022-09-09T07:11:43;15.20;99.90
58529;DHT22;44322;52.968;5.816;2022-09-09T07:14:10;15.20;99.90
58529;DHT22;44322;52.968;5.816;2022-09-09T07:16:43;15.20;99.90
58529;DHT22;44322;52.968;5.816;2022-09-09T07:19:10;15.30;99.90
58529;DHT22;44322;52.968;5.816;2022-09-09T07:21:37;15.30;99.90
58529;DHT22;44322;52.968;5.816;2022-09-09T07:24:03;15.40;99.90
58529;DHT22;44322;52.968;5.816;2022-09-09T07:26:33;15.40;99.90
58529;DHT22;44322;52.968;5.816;2022-09-09T07:29:00;15.50;99.90
58529;DHT22;44322;52.968;5.816;2022-09-09T07:31:30;15.50;99.90
58529;DHT22;44322;52.968;5.816;2022-09-09T07:33:58;15.60;99.90
58529;DHT22;44322;52.968;5.816;2022-09-09T07:36:32;15.70;99.90
58529;DHT22;44322;52.968;5.816;2022-09-09T07:39:02;15.70;99.90
58529;DHT22;44322;52.968;5.816;2022-09-09T07:41:42;15.80;99.90
58529;DHT22;44322;52.968;5.816;2022-09-09T07:44:11;15.80;99.90
58529;DHT22;44322;52.968;5.816;2022-09-09T07:46:38;15.90;99.90
58529;DHT22;44322;52.968;5.816;2022-09-09T07:49:08;16.00;99.90
58529;DHT22;44322;52.968;5.816;2022-09-09T07:51:43;16.10;99.90
58529;DHT22;44322;52.968;5.816;2022-09-09T07:54:17;16.30;99.90
58529;DHT22;44322;52.968;5.816;2022-09-09T07:56:47;16.40;99.90
58529;DHT22;44322;52.968;5.816;2022-09-09T07:59:13;16.50;99.90
58529;DHT22;44322;52.968;5.816;2022-09-09T08:01:50;16.50;99.90
58529;DHT22;44322;52.968;5.816;2022-09-09T08:04:23;16.60;99.90
58529;DHT22;44322;52.968;5.816;2022-09-09T08:06:52;16.70;99.90
58529;DHT22;44322;52.968;5.816;2022-09-09T08:09:23;16.80;99.90
58529;DHT22;44322;52.968;5.816;2022-09-09T08:11:57;16.80;99.90
58529;DHT22;44322;52.968;5.816;2022-09-09T08:14:24;16.90;99.90
58529;DHT22;44322;52.968;5.816;2022-09-09T08:16:50;17.00;99.90
58529;DHT22;44322;52.968;5.816;2022-09-09T08:19:20;17.10;99.90
58529;DHT22;44322;52.968;5.816;2022-09-09T08:21:46;17.20;99.90
58529;DHT22;44322;52.968;5.816;2022-09-09T08:24:14;17.30;99.90
58529;DHT22;44322;52.968;5.816;2022-09-09T08:26:45;17.30;99.90
58529;DHT22;44322;52.968;5.816;2022-09-09T08:29:13;17.30;99.90
58529;DHT22;44322;52.968;5.816;2022-09-09T08:31:43;17.30;99.90
58529;DHT22;44322;52.968;5.816;2022-09-09T08:34:12;17.30;99.90
58529;DHT22;44322;52.968;5.816;2022-09-09T08:36:40;17.30;99.90
58529;DHT22;44322;52.968;5.816;2022-09-09T08:39:09;17.40;99.90
58529;DHT22;44322;52.968;5.816;2022-09-09T08:52:29;17.60;99.90
58529;DHT22;44322;52.968;5.816;2022-09-09T08:55:21;17.70;99.90
58529;DHT22;44322;52.968;5.816;2022-09-09T08:57:45;17.70;99.90
58529;DHT22;44322;52.968;5.816;2022-09-09T09:00:12;17.70;99.90
58529;DHT22;44322;52.968;5.816;2022-09-09T09:05:30;17.70;99.90
58529;DHT22;44322;52.968;5.816;2022-09-09T09:08:27;17.70;99.90
58529;DHT22;44322;52.968;5.816;2022-09-09T09:10:58;17.70;99.90
58529;DHT22;44322;52.968;5.816;2022-09-09T09:16:06;17.60;99.90
58529;DHT22;44322;52.968;5.816;2022-09-09T09:18:35;17.70;99.90
58529;DHT22;44322;52.968;5.816;2022-09-09T09:21:08;17.80;99.90
58529;DHT22;44322;52.968;5.816;2022-09-09T09:23:45;17.80;99.90
58529;DHT22;44322;52.968;5.816;2022-09-09T09:26:14;17.90;99.90
58529;DHT22;44322;52.968;5.816;2022-09-09T09:28:42;18.00;99.90
58529;DHT22;44322;52.968;5.816;2022-09-09T09:31:14;18.20;99.90
58529;DHT22;44322;52.968;5.816;2022-09-09T09:36:24;18.40;99.90
58529;DHT22;44322;52.968;5.816;2022-09-09T09:38:59;18.50;99.90
58529;DHT22;44322;52.968;5.816;2022-09-09T09:41:34;18.60;99.90
58529;DHT22;44322;52.968;5.816;2022-09-09T09:44:01;18.60;99.90
58529;DHT22;44322;52.968;5.816;2022-09-09T09:46:28;18.60;99.90
58529;DHT22;44322;52.968;5.816;2022-09-09T09:49:05;18.60;99.90
58529;DHT22;44322;52.968;5.816;2022-09-09T09:51:33;18.60;99.90
58529;DHT22;44322;52.968;5.816;2022-09-09T09:56:43;18.80;99.90
58529;DHT22;44322;52.968;5.816;2022-09-09T10:01:54;19.10;99.90
58529;DHT22;44322;52.968;5.816;2022-09-09T10:04:22;19.00;99.90
58529;DHT22;44322;52.968;5.816;2022-09-09T10:06:51;19.00;99.90
58529;DHT22;44322;52.968;5.816;2022-09-09T10:09:29;18.90;99.90
58529;DHT22;44322;52.968;5.816;2022-09-09T10:22:35;19.10;99.90
58529;DHT22;44322;52.968;5.816;2022-09-09T10:25:31;19.10;99.90
58529;DHT22;44322;52.968;5.816;2022-09-09T10:33:41;19.30;99.90
58529;DHT22;44322;52.968;5.816;2022-09-09T10:36:23;19.30;99.90
58529;DHT22;44322;52.968;5.816;2022-09-09T10:39:04;19.30;99.90
58529;DHT22;44322;52.968;5.816;2022-09-09T10:42:02;19.20;99.90
58529;DHT22;44322;52.968;5.816;2022-09-09T10:44:42;19.20;99.90
58529;DHT22;44322;52.968;5.816;2022-09-09T10:53:14;19.20;99.90
58529;DHT22;44322;52.968;5.816;2022-09-09T10:55:48;19.30;99.90
58529;DHT22;44322;52.968;5.816;2022-09-09T10:58:52;19.20;99.90
58529;DHT22;44322;52.968;5.816;2022-09-09T11:04:03;19.10;99.90
58529;DHT22;44322;52.968;5.816;2022-09-09T11:06:36;19.00;99.90
58529;DHT22;44322;52.968;5.816;2022-09-09T11:09:05;19.10;99.90
58529;DHT22;44322;52.968;5.816;2022-09-09T11:11:42;19.20;99.90
58529;DHT22;44322;52.968;5.816;2022-09-09T11:14:18;19.20;99.90
58529;DHT22;44322;52.968;5.816;2022-09-09T11:16:52;19.30;99.90
58529;DHT22;44322;52.968;5.816;2022-09-09T11:19:36;19.50;99.90
58529;DHT22;44322;52.968;5.816;2022-09-09T11:22:29;19.70;99.90
58529;DHT22;44322;52.968;5.816;2022-09-09T11:25:03;19.70;99.90
58529;DHT22;44322;52.968;5.816;2022-09-09T11:30:22;19.80;99.90
58529;DHT22;44322;52.968;5.816;2022-09-09T11:33:07;19.80;99.90
58529;DHT22;44322;52.968;5.816;2022-09-09T11:36:34;19.80;99.90
58529;DHT22;44322;52.968;5.816;2022-09-09T11:38:49;19.80;99.90
58529;DHT22;44322;52.968;5.816;2022-09-09T11:41:17;19.80;99.90
58529;DHT22;44322;52.968;5.816;2022-09-09T11:43:51;19.70;99.90
58529;DHT22;44322;52.968;5.816;2022-09-09T11:46:31;19.50;99.90
58529;DHT22;44322;52.968;5.816;2022-09-09T11:49:00;19.50;99.90
58529;DHT22;44322;52.968;5.816;2022-09-09T11:51:29;19.40;99.90
58529;DHT22;44322;52.968;5.816;2022-09-09T11:53:58;19.40;99.90
58529;DHT22;44322;52.968;5.816;2022-09-09T11:56:29;19.50;99.90
58529;DHT22;44322;52.968;5.816;2022-09-09T11:59:00;19.60;99.90
58529;DHT22;44322;52.968;5.816;2022-09-09T12:07:19;19.90;99.90
58529;DHT22;44322;52.968;5.816;2022-09-09T12:12:24;19.60;99.90
58529;DHT22;44322;52.968;5.816;2022-09-09T12:14:57;19.60;99.90
58529;DHT22;44322;52.968;5.816;2022-09-09T12:17:28;19.60;99.90
58529;DHT22;44322;52.968;5.816;2022-09-09T12:20:23;19.70;99.90
58529;DHT22;44322;52.968;5.816;2022-09-09T12:28:30;20.40;99.90
58529;DHT22;44322;52.968;5.816;2022-09-09T12:31:21;20.40;99.90
58529;DHT22;44322;52.968;5.816;2022-09-09T12:33:48;20.40;99.90
58529;DHT22;44322;52.968;5.816;2022-09-09T12:36:29;20.40;99.90
58529;DHT22;44322;52.968;5.816;2022-09-09T12:38:59;20.50;99.90
58529;DHT22;44322;52.968;5.816;2022-09-09T12:41:50;20.70;99.90
58529;DHT22;44322;52.968;5.816;2022-09-09T12:44:16;20.80;99.90
58529;DHT22;44322;52.968;5.816;2022-09-09T12:46:44;20.80;99.90
58529;DHT22;44322;52.968;5.816;2022-09-09T12:49:32;21.10;99.90
58529;DHT22;44322;52.968;5.816;2022-09-09T12:52:07;21.30;99.90
58529;DHT22;44322;52.968;5.816;2022-09-09T12:54:36;21.50;99.90
58529;DHT22;44322;52.968;5.816;2022-09-09T12:57:03;21.40;99.90
58529;DHT22;44322;52.968;5.816;2022-09-09T12:59:38;21.30;99.90
58529;DHT22;44322;52.968;5.816;2022-09-09T13:02:22;21.10;99.90
58529;DHT22;44322;52.968;5.816;2022-09-09T13:04:49;20.90;99.90
58529;DHT22;44322;52.968;5.816;2022-09-09T13:07:17;20.70;99.90
58529;DHT22;44322;52.968;5.816;2022-09-09T13:09:44;20.30;99.90
58529;DHT22;44322;52.968;5.816;2022-09-09T13:12:20;20.10;99.90
58529;DHT22;44322;52.968;5.816;2022-09-09T13:14:51;19.90;99.90
58529;DHT22;44322;52.968;5.816;2022-09-09T13:17:24;19.80;99.90
58529;DHT22;44322;52.968;5.816;2022-09-09T13:19:51;19.80;99.90
58529;DHT22;44322;52.968;5.816;2022-09-09T13:22:36;19.80;99.90
58529;DHT22;44322;52.968;5.816;2022-09-09T13:25:21;19.80;99.90
58529;DHT22;44322;52.968;5.816;2022-09-09T13:27:56;19.80;99.90
58529;DHT22;44322;52.968;5.816;2022-09-09T13:33:03;19.90;99.90
58529;DHT22;44322;52.968;5.816;2022-09-09T13:35:29;20.00;99.90
58529;DHT22;44322;52.968;5.816;2022-09-09T13:37:56;20.10;99.90
58529;DHT22;44322;52.968;5.816;2022-09-09T13:40:23;20.30;99.90
58529;DHT22;44322;52.968;5.816;2022-09-09T13:42:55;20.40;99.90
58529;DHT22;44322;52.968;5.816;2022-09-09T13:45:24;20.60;99.90
58529;DHT22;44322;52.968;5.816;2022-09-09T13:47:53;20.70;99.90
58529;DHT22;44322;52.968;5.816;2022-09-09T13:50:25;20.80;99.90
58529;DHT22;44322;52.968;5.816;2022-09-09T13:52:56;20.70;99.90
58529;DHT22;44322;52.968;5.816;2022-09-09T13:55:27;20.80;99.90
58529;DHT22;44322;52.968;5.816;2022-09-09T13:58:01;20.80;99.90
58529;DHT22;44322;52.968;5.816;2022-09-09T14:00:33;20.70;99.90
58529;DHT22;44322;52.968;5.816;2022-09-09T14:02:59;20.60;99.90
58529;DHT22;44322;52.968;5.816;2022-09-09T14:05:31;20.50;99.90
58529;DHT22;44322;52.968;5.816;2022-09-09T14:07:58;20.40;99.90
58529;DHT22;44322;52.968;5.816;2022-09-09T14:10:23;20.30;99.90
58529;DHT22;44322;52.968;5.816;2022-09-09T14:12:49;20.30;99.90
58529;DHT22;44322;52.968;5.816;2022-09-09T14:15:15;20.20;99.90
58529;DHT22;44322;52.968;5.816;2022-09-09T14:17:42;20.00;99.90
58529;DHT22;44322;52.968;5.816;2022-09-09T14:20:09;19.90;99.90
58529;DHT22;44322;52.968;5.816;2022-09-09T14:22:37;19.80;99.90
58529;DHT22;44322;52.968;5.816;2022-09-09T14:25:05;19.60;99.90
58529;DHT22;44322;52.968;5.816;2022-09-09T14:27:31;19.50;99.90
58529;DHT22;44322;52.968;5.816;2022-09-09T14:29:58;19.40;99.90
58529;DHT22;44322;52.968;5.816;2022-09-09T14:32:26;19.40;99.90
58529;DHT22;44322;52.968;5.816;2022-09-09T14:34:52;19.40;99.90
58529;DHT22;44322;52.968;5.816;2022-09-09T14:37:18;19.40;99.90
58529;DHT22;44322;52.968;5.816;2022-09-09T14:39:44;19.40;99.90
58529;DHT22;44322;52.968;5.816;2022-09-09T14:42:13;19.30;99.90
58529;DHT22;44322;52.968;5.816;2022-09-09T14:44:39;19.10;99.90
58529;DHT22;44322;52.968;5.816;2022-09-09T14:47:06;18.90;99.90
58529;DHT22;44322;52.968;5.816;2022-09-09T14:49:34;18.80;99.90
58529;DHT22;44322;52.968;5.816;2022-09-09T14:52:00;18.60;99.90
58529;DHT22;44322;52.968;5.816;2022-09-09T14:54:26;18.40;99.90
58529;DHT22;44322;52.968;5.816;2022-09-09T14:56:53;18.30;99.90
58529;DHT22;44322;52.968;5.816;2022-09-09T14:59:20;18.20;99.90
58529;DHT22;44322;52.968;5.816;2022-09-09T15:01:45;18.20;99.90
58529;DHT22;44322;52.968;5.816;2022-09-09T15:04:12;18.20;99.90
58529;DHT22;44322;52.968;5.816;2022-09-09T15:06:40;18.10;99.90
58529;DHT22;44322;52.968;5.816;2022-09-09T15:09:08;18.20;99.90
58529;DHT22;44322;52.968;5.816;2022-09-09T15:11:36;18.30;99.90
58529;DHT22;44322;52.968;5.816;2022-09-09T15:14:07;18.40;99.90
58529;DHT22;44322;52.968;5.816;2022-09-09T15:16:33;18.40;99.90
58529;DHT22;44322;52.968;5.816;2022-09-09T15:19:01;18.50;99.90
58529;DHT22;44322;52.968;5.816;2022-09-09T15:21:29;18.60;99.90
58529;DHT22;44322;52.968;5.816;2022-09-09T15:23:56;18.60;99.90
58529;DHT22;44322;52.968;5.816;2022-09-09T15:26:23;18.60;99.90
58529;DHT22;44322;52.968;5.816;2022-09-09T15:28:49;18.60;99.90
58529;DHT22;44322;52.968;5.816;2022-09-09T15:31:24;18.60;99.90
58529;DHT22;44322;52.968;5.816;2022-09-09T15:33:52;18.60;99.90
58529;DHT22;44322;52.968;5.816;2022-09-09T15:36:20;18.60;99.90
58529;DHT22;44322;52.968;5.816;2022-09-09T15:38:48;18.60;99.90
58529;DHT22;44322;52.968;5.816;2022-09-09T15:41:14;18.60;99.90
58529;DHT22;44322;52.968;5.816;2022-09-09T15:43:45;18.60;99.90
58529;DHT22;44322;52.968;5.816;2022-09-09T15:48:44;18.70;99.90
58529;DHT22;44322;52.968;5.816;2022-09-09T15:51:11;18.70;99.90
58529;DHT22;44322;52.968;5.816;2022-09-09T15:53:37;18.70;99.90
58529;DHT22;44322;52.968;5.816;2022-09-09T15:56:05;18.70;99.90
58529;DHT22;44322;52.968;5.816;2022-09-09T15:58:32;18.70;99.90
58529;DHT22;44322;52.968;5.816;2022-09-09T16:01:09;18.70;99.90
58529;DHT22;44322;52.968;5.816;2022-09-09T16:03:38;18.60;99.90
58529;DHT22;44322;52.968;5.816;2022-09-09T16:06:05;18.60;99.90
58529;DHT22;44322;52.968;5.816;2022-09-09T16:08:34;18.60;99.90
58529;DHT22;44322;52.968;5.816;2022-09-09T16:13:37;18.60;99.90
58529;DHT22;44322;52.968;5.816;2022-09-09T16:16:04;18.60;99.90
58529;DHT22;44322;52.968;5.816;2022-09-09T16:18:37;18.50;99.90
58529;DHT22;44322;52.968;5.816;2022-09-09T16:21:04;18.50;99.90
58529;DHT22;44322;52.968;5.816;2022-09-09T16:23:31;18.50;99.90
58529;DHT22;44322;52.968;5.816;2022-09-09T16:25:58;18.50;99.90
58529;DHT22;44322;52.968;5.816;2022-09-09T16:28:24;18.40;99.90
58529;DHT22;44322;52.968;5.816;2022-09-09T16:30:50;18.40;99.90
58529;DHT22;44322;52.968;5.816;2022-09-09T16:33:17;18.40;99.90
58529;DHT22;44322;52.968;5.816;2022-09-09T16:35:43;18.40;99.90
58529;DHT22;44322;52.968;5.816;2022-09-09T16:38:10;18.40;99.90
58529;DHT22;44322;52.968;5.816;2022-09-09T16:40:37;18.40;99.90
58529;DHT22;44322;52.968;5.816;2022-09-09T16:43:05;18.40;99.90
58529;DHT22;44322;52.968;5.816;2022-09-09T16:45:32;18.40;99.90
58529;DHT22;44322;52.968;5.816;2022-09-09T16:47:59;18.40;99.90
58529;DHT22;44322;52.968;5.816;2022-09-09T16:50:26;18.40;99.90
58529;DHT22;44322;52.968;5.816;2022-09-09T16:52:52;18.40;99.90
58529;DHT22;44322;52.968;5.816;2022-09-09T16:55:19;18.40;99.90
58529;DHT22;44322;52.968;5.816;2022-09-09T16:57:48;18.40;99.90
58529;DHT22;44322;52.968;5.816;2022-09-09T17:00:15;18.40;99.90
58529;DHT22;44322;52.968;5.816;2022-09-09T17:02:45;18.40;99.90
58529;DHT22;44322;52.968;5.816;2022-09-09T17:05:11;18.40;99.90
58529;DHT22;44322;52.968;5.816;2022-09-09T17:07:38;18.40;99.90
58529;DHT22;44322;52.968;5.816;2022-09-09T17:10:04;18.40;99.90
58529;DHT22;44322;52.968;5.816;2022-09-09T17:12:31;18.30;99.90
58529;DHT22;44322;52.968;5.816;2022-09-09T17:14:57;18.30;99.90
58529;DHT22;44322;52.968;5.816;2022-09-09T17:17:25;18.30;99.90
58529;DHT22;44322;52.968;5.816;2022-09-09T17:19:52;18.30;99.90
58529;DHT22;44322;52.968;5.816;2022-09-09T17:22:18;18.30;99.90
58529;DHT22;44322;52.968;5.816;2022-09-09T17:24:46;18.30;99.90
58529;DHT22;44322;52.968;5.816;2022-09-09T17:27:12;18.20;99.90
58529;DHT22;44322;52.968;5.816;2022-09-09T17:29:38;18.20;99.90
58529;DHT22;44322;52.968;5.816;2022-09-09T17:32:05;18.20;99.90
58529;DHT22;44322;52.968;5.816;2022-09-09T17:34:33;18.20;99.90
58529;DHT22;44322;52.968;5.816;2022-09-09T17:36:58;18.10;99.90
58529;DHT22;44322;52.968;5.816;2022-09-09T17:39:24;18.10;99.90
58529;DHT22;44322;52.968;5.816;2022-09-09T17:41:51;18.10;99.90
58529;DHT22;44322;52.968;5.816;2022-09-09T17:44:17;18.00;99.90
58529;DHT22;44322;52.968;5.816;2022-09-09T17:46:45;18.00;99.90
58529;DHT22;44322;52.968;5.816;2022-09-09T17:49:13;18.00;99.90
58529;DHT22;44322;52.968;5.816;2022-09-09T17:51:40;18.00;99.90
58529;DHT22;44322;52.968;5.816;2022-09-09T17:54:19;18.00;99.90